createdAt,value
2022-11-24T00:47:14.804Z,17.42
2022-11-24T00:49:42.678Z,17.41
2022-11-24T00:52:10.413Z,17.41
2022-11-24T00:54:38.175Z,17.43
2022-11-24T00:57:06.063Z,17.42
2022-11-24T00:59:33.880Z,17.42
2022-11-24T01:45:52.880Z,17.38
2022-11-24T01:48:25.936Z,17.37
2022-11-24T01:50:56.098Z,17.37
2022-11-24T01:53:23.853Z,17.37
2022-11-24T01:55:51.621Z,17.37
2022-11-24T01:58:20.540Z,17.37
2022-11-24T02:47:40.433Z,17.36
2022-11-24T02:50:08.409Z,17.35
2022-11-24T02:52:36.347Z,17.35
2022-11-24T02:55:04.765Z,17.37
2022-11-24T02:57:32.520Z,17.35
2022-11-24T03:00:00.261Z,17.35
2022-11-24T03:46:19.488Z,17.33
2022-11-24T03:48:47.310Z,17.33
2022-11-24T03:51:15.471Z,17.33
2022-11-24T03:53:43.284Z,17.33
2022-11-24T03:56:11.016Z,17.33
2022-11-24T03:58:38.725Z,17.33
2022-11-24T04:46:44.363Z,17.29
2022-11-24T04:49:12.556Z,17.30
2022-11-24T04:51:40.190Z,17.30
2022-11-24T04:54:08.048Z,17.31
2022-11-24T04:56:35.901Z,17.31
2022-11-24T04:59:07.944Z,17.30
2022-11-24T05:30:50.261Z,17.30
2022-11-24T05:33:19.167Z,17.30
2022-11-24T05:35:46.892Z,17.31
2022-11-24T05:38:14.460Z,17.30
2022-11-24T05:40:42.146Z,17.29
2022-11-24T05:43:11.352Z,17.22
2022-11-24T05:45:38.896Z,17.22
2022-11-24T05:48:08.058Z,17.21
2022-11-24T05:50:36.286Z,17.21
2022-11-24T05:53:04.049Z,17.21
2022-11-24T05:55:31.609Z,17.21
2022-11-24T05:58:00.202Z,17.21
2022-11-24T06:00:27.765Z,17.20
2022-11-24T06:02:55.421Z,17.29
2022-11-24T06:05:24.421Z,17.31
2022-11-24T06:07:52.570Z,17.32
2022-11-24T06:10:21.632Z,17.31
2022-11-24T06:12:49.300Z,17.32
2022-11-24T06:15:17.308Z,17.31
2022-11-24T06:17:44.880Z,17.32
2022-11-24T06:20:12.698Z,17.31
2022-11-24T06:22:41.703Z,17.31
2022-11-24T06:25:09.753Z,17.32
2022-11-24T06:27:37.699Z,17.32
2022-11-24T06:30:05.842Z,17.33
2022-11-24T06:32:33.439Z,17.32
2022-11-24T06:35:01.009Z,17.33
2022-11-24T06:37:28.786Z,17.33
2022-11-24T06:39:57.749Z,17.33
2022-11-24T06:42:25.325Z,17.33
2022-11-24T06:44:53.035Z,17.32
2022-11-24T06:47:20.631Z,17.32
2022-11-24T06:49:48.190Z,17.33
2022-11-24T06:52:15.794Z,17.33
2022-11-24T06:54:43.801Z,17.33
2022-11-24T06:57:12.885Z,17.31
2022-11-24T06:59:40.488Z,17.33
2022-11-24T07:02:08.288Z,17.33
2022-11-24T07:04:36.142Z,17.32
2022-11-24T07:07:04.012Z,17.32
2022-11-24T07:09:31.599Z,17.31
2022-11-24T07:11:59.170Z,17.33
2022-11-24T07:14:28.078Z,17.32
2022-11-24T07:16:55.677Z,17.32
2022-11-24T07:19:25.224Z,17.31
2022-11-24T07:21:53.379Z,17.32
2022-11-24T07:24:21.017Z,17.32
2022-11-24T07:26:48.575Z,17.33
2022-11-24T07:29:16.334Z,17.32
2022-11-24T07:31:46.222Z,17.32
2022-11-24T07:34:14.761Z,17.31
2022-11-24T07:36:42.590Z,17.32
2022-11-24T07:39:10.185Z,17.31
2022-11-24T07:41:37.729Z,17.31
2022-11-24T07:44:05.988Z,17.31
2022-11-24T07:46:33.645Z,17.31
2022-11-24T07:49:02.815Z,17.31
2022-11-24T07:51:30.701Z,17.32
2022-11-24T07:53:58.566Z,17.31
2022-11-24T07:56:26.207Z,17.32
2022-11-24T07:58:53.830Z,17.32
2022-11-24T08:01:21.523Z,17.31
2022-11-24T08:03:49.160Z,17.31
2022-11-24T08:06:30.284Z,17.31
2022-11-24T08:09:00.153Z,17.32
2022-11-24T08:11:27.766Z,17.31
2022-11-24T08:13:55.372Z,17.32
2022-11-24T08:16:23.003Z,17.32
2022-11-24T08:18:50.698Z,17.32
2022-11-24T08:21:19.639Z,17.31
2022-11-24T08:23:47.255Z,17.31
2022-11-24T08:26:16.710Z,17.32
2022-11-24T08:28:44.382Z,17.31
2022-11-24T08:31:13.983Z,17.32
2022-11-24T08:33:41.699Z,17.31
2022-11-24T08:36:10.188Z,17.32
2022-11-24T08:38:39.342Z,17.32
2022-11-24T08:41:07.784Z,17.32
2022-11-24T08:43:35.656Z,17.32
2022-11-24T08:46:03.328Z,17.31
2022-11-24T08:48:31.678Z,17.31
2022-11-24T08:50:59.318Z,17.31
2022-11-24T08:53:26.969Z,17.28
2022-11-24T08:55:55.903Z,17.31
2022-11-24T08:58:23.449Z,17.29
2022-11-24T09:00:51.043Z,17.33
2022-11-24T09:03:18.623Z,17.32
2022-11-24T09:05:53.751Z,17.31
2022-11-24T09:08:22.033Z,17.33
2022-11-24T09:10:49.601Z,17.31
2022-11-24T09:13:18.597Z,17.31
2022-11-24T09:15:46.235Z,17.32
2022-11-24T09:18:14.465Z,17.32
2022-11-24T09:20:42.043Z,17.31
2022-11-24T09:23:09.618Z,17.31
2022-11-24T09:25:37.472Z,17.32
2022-11-24T09:28:05.138Z,17.32
2022-11-24T09:30:34.113Z,17.32
2022-11-24T09:33:01.940Z,17.33
2022-11-24T09:35:29.662Z,17.33
2022-11-24T09:37:57.193Z,17.33
2022-11-24T09:40:24.793Z,17.33
2022-11-24T09:42:54.916Z,17.33
2022-11-24T09:45:48.872Z,17.33
2022-11-24T09:48:15.796Z,17.33
2022-11-24T09:50:43.411Z,17.33
2022-11-24T09:53:12.298Z,17.31
2022-11-24T09:55:40.952Z,17.33
2022-11-24T09:58:38.831Z,17.31
2022-11-24T10:01:06.725Z,17.34
2022-11-24T10:03:36.504Z,17.33
2022-11-24T10:06:04.995Z,17.34
2022-11-24T10:08:36.169Z,17.34
2022-11-24T10:11:04.195Z,17.34
2022-11-24T10:13:46.067Z,17.34
2022-11-24T10:16:15.576Z,17.35
2022-11-24T10:18:46.655Z,17.35
2022-11-24T10:21:19.093Z,17.34
2022-11-24T10:23:50.874Z,17.34
2022-11-24T10:26:19.494Z,17.33
2022-11-24T10:28:49.170Z,17.34
2022-11-24T10:31:24.117Z,17.35
2022-11-24T10:33:53.416Z,17.34
2022-11-24T10:36:21.901Z,17.34
2022-11-24T10:38:51.922Z,17.33
2022-11-24T10:41:20.486Z,17.34
2022-11-24T10:43:48.045Z,17.34
2022-11-24T10:46:16.035Z,17.35
2022-11-24T10:48:44.584Z,17.37
2022-11-24T10:51:30.406Z,17.37
2022-11-24T10:53:59.864Z,17.37
2022-11-24T10:56:27.510Z,17.37
2022-11-24T10:58:55.420Z,17.38
2022-11-24T11:01:27.606Z,17.38
2022-11-24T11:03:56.096Z,17.38
2022-11-24T11:06:24.547Z,17.38
2022-11-24T11:08:55.741Z,17.38
2022-11-24T11:11:23.759Z,17.38
2022-11-24T11:14:00.072Z,17.38
2022-11-24T11:16:33.634Z,17.39
2022-11-24T11:19:15.665Z,17.38
2022-11-24T11:21:50.802Z,17.39
2022-11-24T11:24:19.868Z,17.37
2022-11-24T11:26:47.437Z,17.41
2022-11-24T11:34:53.033Z,17.42
2022-11-24T11:37:20.942Z,17.42
2022-11-24T11:39:50.276Z,17.41
2022-11-24T11:42:45.300Z,17.41
2022-11-24T11:45:07.642Z,17.41
2022-11-24T11:47:37.310Z,17.42
2022-11-24T11:50:05.100Z,17.42
2022-11-24T11:52:47.609Z,17.42
2022-11-24T11:55:49.885Z,17.43
2022-11-24T11:58:29.361Z,17.42
2022-11-24T12:00:59.435Z,17.43
2022-11-24T12:03:31.006Z,17.43
2022-11-24T12:06:00.492Z,17.43
2022-11-24T12:08:49.549Z,17.43
2022-11-24T12:11:19.883Z,17.42
2022-11-24T12:13:51.650Z,17.42
2022-11-24T12:16:25.212Z,17.43
2022-11-24T12:18:57.591Z,17.42
2022-11-24T12:21:27.127Z,17.43
2022-11-24T12:23:58.897Z,17.43
2022-11-24T12:26:28.265Z,17.43
2022-11-24T12:28:59.712Z,17.44
2022-11-24T12:31:28.740Z,17.45
2022-11-24T12:34:01.771Z,17.45
2022-11-24T12:36:33.922Z,17.45
2022-11-24T12:39:02.892Z,17.45
2022-11-24T12:41:41.650Z,17.45
2022-11-24T12:44:14.071Z,17.45
2022-11-24T12:46:43.619Z,17.46
2022-11-24T12:49:13.660Z,17.44
2022-11-24T12:51:41.655Z,17.42
2022-11-24T12:54:11.366Z,17.45
2022-11-24T12:56:39.404Z,17.45
2022-11-24T12:59:13.373Z,17.46
2022-11-24T13:01:41.820Z,17.46
2022-11-24T13:04:12.129Z,17.46
2022-11-24T13:06:48.795Z,17.46
2022-11-24T13:09:17.130Z,17.47
2022-11-24T13:11:45.003Z,17.47
2022-11-24T13:14:15.819Z,17.47
2022-11-24T13:17:13.521Z,17.48
2022-11-24T13:19:38.149Z,17.48
2022-11-24T13:22:11.742Z,17.48
2022-11-24T13:24:39.639Z,17.49
2022-11-24T13:27:27.066Z,17.49
2022-11-24T13:29:56.013Z,17.49
2022-11-24T13:32:50.744Z,17.49
2022-11-24T13:35:18.533Z,17.49
2022-11-24T13:37:46.671Z,17.49
2022-11-24T13:40:29.855Z,17.50
2022-11-24T13:43:16.258Z,17.49
2022-11-24T13:45:51.362Z,17.48
2022-11-24T13:48:37.507Z,17.46
2022-11-24T13:51:16.019Z,17.47
2022-11-24T13:53:43.764Z,17.50
2022-11-24T13:56:22.424Z,17.49
2022-11-24T13:58:50.357Z,17.50
2022-11-24T14:01:20.607Z,17.42
2022-11-24T14:04:21.623Z,17.42
2022-11-24T14:06:39.048Z,17.39
2022-11-24T14:09:08.741Z,17.39
2022-11-24T14:11:36.286Z,17.38
2022-11-24T14:14:16.078Z,17.39
2022-11-24T14:16:48.193Z,17.48
2022-11-24T14:19:18.864Z,17.49
2022-11-24T14:21:48.119Z,17.50
2022-11-24T14:24:19.606Z,17.51
2022-11-24T14:26:47.341Z,17.48
2022-11-24T14:29:15.426Z,17.51
2022-11-24T14:31:43.588Z,17.48
2022-11-24T14:34:16.469Z,17.50
2022-11-24T14:36:44.097Z,17.50
2022-11-24T14:39:12.653Z,17.52
2022-11-24T14:41:40.211Z,17.50
2022-11-24T14:44:08.278Z,17.51
2022-11-24T14:46:35.999Z,17.51
2022-11-24T14:49:03.564Z,17.51
2022-11-24T14:51:35.972Z,17.51
2022-11-24T14:54:04.396Z,17.52
2022-11-24T14:56:33.321Z,17.51
2022-11-24T14:59:00.942Z,17.51
2022-11-24T15:01:32.999Z,17.50
2022-11-24T15:04:54.521Z,17.49
2022-11-24T15:07:07.405Z,17.51
2022-11-24T15:09:35.889Z,17.51
2022-11-24T15:12:05.883Z,17.51
2022-11-24T15:14:48.518Z,17.50
2022-11-24T15:17:17.147Z,17.50
2022-11-24T15:19:45.122Z,17.51
2022-11-24T15:22:27.854Z,17.51
2022-11-24T15:24:56.886Z,17.51
2022-11-24T15:27:24.443Z,17.51
2022-11-24T15:29:51.994Z,17.51
2022-11-24T15:32:19.780Z,17.52
2022-11-24T15:34:47.341Z,17.52
2022-11-24T15:37:14.924Z,17.51
2022-11-24T15:39:42.470Z,17.52
2022-11-24T15:42:12.052Z,17.52
2022-11-24T15:44:39.617Z,17.52
2022-11-24T15:47:07.303Z,17.52
2022-11-24T15:49:35.148Z,17.52
2022-11-24T15:52:02.748Z,17.51
2022-11-24T15:54:30.542Z,17.52
2022-11-24T15:56:58.267Z,17.52
2022-11-24T15:59:27.292Z,17.52
2022-11-24T16:01:54.934Z,17.53
2022-11-24T16:04:22.549Z,17.52
2022-11-24T16:06:50.274Z,17.52
2022-11-24T16:09:18.175Z,17.51
2022-11-24T16:11:45.762Z,17.52
2022-11-24T16:14:13.618Z,17.52
2022-11-24T16:16:42.749Z,17.51
2022-11-24T16:19:10.793Z,17.52
2022-11-24T16:21:38.393Z,17.52
2022-11-24T16:24:06.345Z,17.52
2022-11-24T16:26:34.170Z,17.52
2022-11-24T16:29:01.764Z,17.52
2022-11-24T16:31:30.390Z,17.52
2022-11-24T16:33:59.819Z,17.52
2022-11-24T16:36:28.619Z,17.53
2022-11-24T16:38:56.259Z,17.52
2022-11-24T16:41:23.939Z,17.51
2022-11-24T16:43:52.952Z,17.51
2022-11-24T16:46:21.109Z,17.51
2022-11-24T16:48:49.593Z,17.52
2022-11-24T16:51:18.655Z,17.52
2022-11-24T16:53:46.226Z,17.52
2022-11-24T16:56:14.734Z,17.51
2022-11-24T16:58:42.703Z,17.52
2022-11-24T17:01:11.500Z,17.52
2022-11-24T17:03:39.237Z,17.52
2022-11-24T17:06:07.430Z,17.52
2022-11-24T17:08:36.873Z,17.53
2022-11-24T17:11:07.478Z,17.52
2022-11-24T17:13:35.127Z,17.53
2022-11-24T17:16:04.351Z,17.53
2022-11-24T17:18:32.254Z,17.53
2022-11-24T17:21:03.205Z,17.53
2022-11-24T17:23:33.715Z,17.52
2022-11-24T17:26:06.137Z,17.52
2022-11-24T17:28:33.763Z,17.52
2022-11-24T17:31:06.340Z,17.51
2022-11-24T17:33:33.917Z,17.52
2022-11-24T17:36:02.365Z,17.52
2022-11-24T17:38:30.930Z,17.52
2022-11-24T17:40:58.573Z,17.53
2022-11-24T17:43:28.234Z,17.52
2022-11-24T17:45:55.983Z,17.52
2022-11-24T17:48:23.695Z,17.52
2022-11-24T17:50:59.274Z,17.52
2022-11-24T17:53:26.874Z,17.52
2022-11-24T17:55:54.456Z,17.53
2022-11-24T17:58:22.039Z,17.52
2022-11-24T18:00:51.690Z,17.52
2022-11-24T18:03:19.303Z,17.53
2022-11-24T18:05:46.914Z,17.53
2022-11-24T18:08:14.524Z,17.54
2022-11-24T18:10:42.197Z,17.53
2022-11-24T18:13:22.181Z,17.54
2022-11-24T18:16:01.254Z,17.54
2022-11-24T18:18:28.820Z,17.55
2022-11-24T18:20:56.814Z,17.52
2022-11-24T18:23:24.414Z,17.54
2022-11-24T18:25:55.017Z,17.53
2022-11-24T18:28:22.936Z,17.53
2022-11-24T18:30:50.664Z,17.53
2022-11-24T18:33:19.653Z,17.54
2022-11-24T18:35:56.100Z,17.54
2022-11-24T18:38:23.667Z,17.55
2022-11-24T18:40:53.071Z,17.53
2022-11-24T18:43:20.833Z,17.53
2022-11-24T18:45:48.417Z,17.55
2022-11-24T18:48:16.199Z,17.55
2022-11-24T18:50:45.367Z,17.56
2022-11-24T18:53:13.235Z,17.55
2022-11-24T18:55:41.394Z,17.56
2022-11-24T18:58:08.954Z,17.55
2022-11-24T19:00:36.803Z,17.56
2022-11-24T19:03:04.817Z,17.55
2022-11-24T19:05:32.365Z,17.55
2022-11-24T19:08:01.462Z,17.54
2022-11-24T19:10:29.142Z,17.55
2022-11-24T19:12:56.699Z,17.54
2022-11-24T19:15:24.301Z,17.54
2022-11-24T19:17:52.144Z,17.54
2022-11-24T19:20:19.743Z,17.54
2022-11-24T19:22:47.308Z,17.56
2022-11-24T19:25:16.761Z,17.57
2022-11-24T19:27:44.409Z,17.56
2022-11-24T19:30:13.261Z,17.55
2022-11-24T19:32:40.844Z,17.56
2022-11-24T19:35:08.989Z,17.55
2022-11-24T19:37:37.307Z,17.55
2022-11-24T19:40:05.182Z,17.57
2022-11-24T19:42:34.149Z,17.55
2022-11-24T19:45:01.848Z,17.55
2022-11-24T19:47:29.470Z,17.55
2022-11-24T19:49:57.026Z,17.55
2022-11-24T19:52:24.585Z,17.56
2022-11-24T19:54:52.527Z,17.56
2022-11-24T19:57:20.107Z,17.55
2022-11-24T19:59:49.061Z,17.55
2022-11-24T20:02:17.110Z,17.55
2022-11-24T20:04:45.634Z,17.54
2022-11-24T20:07:14.635Z,17.54
2022-11-24T20:09:42.226Z,17.54
2022-11-24T20:12:09.923Z,17.55
2022-11-24T20:14:37.755Z,17.54
2022-11-24T20:17:06.847Z,17.54
2022-11-24T20:19:34.482Z,17.55
2022-11-24T20:22:02.072Z,17.55
2022-11-24T20:24:30.060Z,17.54
2022-11-24T20:26:58.249Z,17.55
2022-11-24T20:29:25.925Z,17.55
2022-11-24T20:31:54.173Z,17.54
2022-11-24T20:34:23.210Z,17.55
2022-11-24T20:36:53.041Z,17.53
2022-11-24T20:39:21.038Z,17.53
2022-11-24T20:41:49.421Z,17.53
2022-11-24T20:44:17.576Z,17.53
2022-11-24T20:46:46.107Z,17.53
2022-11-24T20:49:14.106Z,17.53
2022-11-24T20:51:44.142Z,17.53
2022-11-24T20:54:12.985Z,17.52
2022-11-24T20:56:41.745Z,17.53
2022-11-24T20:59:09.842Z,17.52
2022-11-24T21:01:38.521Z,17.54
2022-11-24T21:04:06.642Z,17.51
2022-11-24T21:06:34.229Z,17.52
2022-11-24T21:09:04.203Z,17.53
2022-11-24T21:11:32.311Z,17.53
2022-11-24T21:14:00.185Z,17.53
2022-11-24T21:16:28.524Z,17.53
2022-11-24T21:18:56.529Z,17.53
2022-11-24T21:21:24.435Z,17.52
2022-11-24T21:23:52.004Z,17.53
2022-11-24T21:26:20.966Z,17.52
2022-11-24T21:28:48.573Z,17.53
2022-11-24T21:31:16.729Z,17.53
2022-11-24T21:33:45.860Z,17.52
2022-11-24T21:36:14.554Z,17.52
2022-11-24T21:38:42.476Z,17.52
2022-11-24T21:41:10.603Z,17.52
2022-11-24T21:43:39.775Z,17.51
2022-11-24T21:46:07.877Z,17.51
2022-11-24T21:48:36.085Z,17.52
2022-11-24T21:51:04.572Z,17.51
2022-11-24T21:53:32.741Z,17.51
2022-11-24T21:56:00.587Z,17.51
2022-11-24T21:58:28.542Z,17.51
2022-11-24T22:00:57.696Z,17.51
2022-11-24T22:03:25.541Z,17.51
2022-11-24T22:05:56.022Z,17.51
2022-11-24T22:08:23.911Z,17.50
2022-11-24T22:10:52.400Z,17.52
2022-11-24T22:13:20.001Z,17.52
2022-11-24T22:15:47.576Z,17.52
2022-11-24T22:18:16.619Z,17.50
2022-11-24T22:20:44.258Z,17.50
2022-11-24T22:23:11.826Z,17.50
2022-11-24T22:25:39.349Z,17.50
2022-11-24T22:28:06.881Z,17.50
2022-11-24T22:30:34.458Z,17.50
2022-11-24T22:33:02.019Z,17.52
2022-11-24T22:35:31.014Z,17.51
2022-11-24T22:37:58.991Z,17.50
2022-11-24T22:40:26.563Z,17.50
2022-11-24T22:42:54.689Z,17.50
2022-11-24T22:45:22.293Z,17.51
2022-11-24T22:47:49.906Z,17.50
2022-11-24T22:50:17.492Z,17.50
2022-11-24T22:52:46.659Z,17.51
2022-11-24T22:55:14.372Z,17.50
2022-11-24T22:57:46.015Z,17.50
2022-11-24T23:00:16.249Z,17.49
2022-11-24T23:02:43.881Z,17.50
2022-11-24T23:05:11.464Z,17.49
2022-11-24T23:07:39.146Z,17.50
2022-11-24T23:10:08.885Z,17.50
2022-11-24T23:12:36.450Z,17.50
2022-11-24T23:15:04.039Z,17.50
2022-11-24T23:46:45.677Z,17.47
2022-11-24T23:49:13.232Z,17.47
2022-11-24T23:51:42.016Z,17.46
2022-11-24T23:54:10.083Z,17.46
2022-11-24T23:56:37.702Z,17.45
2022-11-24T23:59:05.427Z,17.46
